createdAt,value
2022-08-17T00:00:57.577Z,99515.02
2022-08-17T00:03:34.296Z,99524.80
2022-08-17T00:06:12.259Z,99523.11
2022-08-17T00:08:47.350Z,99523.38
2022-08-17T00:11:23.696Z,99518.39
2022-08-17T00:13:59.799Z,99522.08
2022-08-17T00:16:55.929Z,99516.94
2022-08-17T00:19:13.383Z,99506.59
2022-08-17T00:22:35.241Z,99516.16
2022-08-17T00:24:23.599Z,99519.94
2022-08-17T00:26:56.757Z,99520.19
2022-08-17T00:29:29.963Z,99522.10
2022-08-17T00:33:13.602Z,99530.98
2022-08-17T00:34:39.505Z,99527.61
2022-08-17T00:37:12.642Z,99523.34
2022-08-17T00:39:46.127Z,99528.77
2022-08-17T00:42:20.800Z,99521.83
2022-08-17T00:44:54.164Z,99524.42
2022-08-17T00:47:27.842Z,99516.45
2022-08-17T00:50:01.571Z,99512.97
2022-08-17T00:55:19.107Z,99506.55
2022-08-17T00:57:55.834Z,99506.86
2022-08-17T01:00:32.349Z,99504.20
2022-08-17T01:03:08.608Z,99505.22
2022-08-17T01:05:43.046Z,99503.48
2022-08-17T01:08:20.667Z,99496.53
2022-08-17T01:11:00.254Z,99499.27
2022-08-17T01:13:39.629Z,99495.70
2022-08-17T01:16:11.985Z,99488.56
2022-08-17T01:18:46.950Z,99500.10
2022-08-17T01:21:23.982Z,99498.36
2022-08-17T01:23:57.568Z,99498.36
2022-08-17T01:26:33.758Z,99498.51
2022-08-17T01:29:08.363Z,99499.72
2022-08-17T01:31:45.287Z,99488.48
2022-08-17T01:34:20.114Z,99500.22
2022-08-17T01:36:53.969Z,99495.05
2022-08-17T01:39:29.575Z,99489.13
2022-08-17T01:42:07.222Z,99489.41
2022-08-17T01:44:41.290Z,99493.08
2022-08-17T01:47:14.986Z,99484.44
2022-08-17T01:49:48.242Z,99485.52
2022-08-17T01:52:23.947Z,99485.78
2022-08-17T01:54:58.468Z,99488.59
2022-08-17T01:57:31.647Z,99492.16
2022-08-17T02:00:08.434Z,99483.28
2022-08-17T02:02:45.395Z,99486.73
2022-08-17T02:05:19.203Z,99485.03
2022-08-17T02:08:00.468Z,99492.14
2022-08-17T02:10:33.887Z,99493.06
2022-08-17T02:13:03.377Z,99493.23
2022-08-17T02:15:36.952Z,99493.38
2022-08-17T02:18:11.990Z,99491.69
2022-08-17T02:20:45.564Z,99487.41
2022-08-17T02:23:19.429Z,99483.03
2022-08-17T02:25:52.848Z,99488.41
2022-08-17T02:28:26.325Z,99487.50
2022-08-17T02:31:03.220Z,99484.01
2022-08-17T02:33:41.999Z,99490.20
2022-08-17T02:36:13.122Z,99485.85
2022-08-17T02:38:46.264Z,99480.61
2022-08-17T02:41:19.953Z,99483.36
2022-08-17T02:43:53.747Z,99480.66
2022-08-17T02:46:27.143Z,99479.66
2022-08-17T02:49:01.025Z,99489.25
2022-08-17T02:51:35.576Z,99493.55
2022-08-17T02:54:40.445Z,99483.73
2022-08-17T02:56:44.390Z,99483.59
2022-08-17T02:59:17.585Z,99476.53
2022-08-17T03:01:50.934Z,99480.98
2022-08-17T03:04:24.406Z,99484.54
2022-08-17T03:06:57.798Z,99480.13
2022-08-17T03:09:30.731Z,99476.47
2022-08-17T03:12:09.439Z,99472.67
2022-08-17T03:14:43.737Z,99470.66
2022-08-17T03:17:17.006Z,99457.55
2022-08-17T03:19:53.502Z,99483.59
2022-08-17T03:22:36.099Z,99471.95
2022-08-17T03:25:10.812Z,99473.70
2022-08-17T03:27:44.213Z,99476.38
2022-08-17T03:30:19.469Z,99472.91
2022-08-17T03:33:00.067Z,99469.14
2022-08-17T03:35:37.711Z,99475.06
2022-08-17T03:38:12.389Z,99471.28
2022-08-17T03:40:57.381Z,99480.98
2022-08-17T03:43:24.304Z,99484.71
2022-08-17T03:46:28.422Z,99481.33
2022-08-17T03:49:08.135Z,99486.73
2022-08-17T03:52:15.842Z,99481.33
2022-08-17T03:57:29.603Z,99481.42
2022-08-17T04:00:04.514Z,99494.91
2022-08-17T04:02:39.475Z,99481.35
2022-08-17T04:05:12.999Z,99478.45
2022-08-17T04:07:46.287Z,99478.29
2022-08-17T04:10:22.672Z,99474.59
2022-08-17T04:12:56.158Z,99471.72
2022-08-17T04:15:30.042Z,99474.13
2022-08-17T04:18:03.171Z,99471.41
2022-08-17T04:20:36.593Z,99481.09
2022-08-17T04:23:12.535Z,99476.42
2022-08-17T04:25:48.973Z,99477.27
2022-08-17T04:28:22.328Z,99468.25
2022-08-17T04:30:55.356Z,99467.16
2022-08-17T04:33:31.090Z,99464.45
2022-08-17T04:36:07.667Z,99462.17
2022-08-17T04:38:43.312Z,99464.42
2022-08-17T04:41:34.577Z,99462.56
2022-08-17T04:44:07.978Z,99468.50
2022-08-17T04:46:41.222Z,99455.20
2022-08-17T04:49:14.363Z,99468.89
2022-08-17T04:51:54.463Z,99454.34
2022-08-17T04:54:24.566Z,99466.03
2022-08-17T04:56:57.886Z,99460.98
2022-08-17T04:59:31.148Z,99460.56
2022-08-17T05:02:04.261Z,99465.49
2022-08-17T05:04:37.223Z,99462.43
2022-08-17T05:07:11.118Z,99458.61
2022-08-17T05:09:44.223Z,99459.16
2022-08-17T05:12:18.453Z,99460.59
2022-08-17T05:14:51.686Z,99463.05
2022-08-17T05:17:24.669Z,99457.48
2022-08-17T05:19:57.873Z,99451.83
2022-08-17T05:22:31.496Z,99441.70
2022-08-17T05:25:04.597Z,99451.13
2022-08-17T05:27:38.479Z,99440.14
2022-08-17T05:30:15.509Z,99443.55
2022-08-17T05:32:56.176Z,99442.33
2022-08-17T05:35:31.491Z,99437.25
2022-08-17T05:38:05.557Z,99436.03
2022-08-17T05:40:38.903Z,99437.28
2022-08-17T05:43:15.137Z,99432.61
2022-08-17T05:45:55.104Z,99430.48
2022-08-17T05:48:36.776Z,99427.47
2022-08-17T05:51:06.593Z,99428.89
2022-08-17T05:53:43.452Z,99426.61
2022-08-17T05:56:29.702Z,99432.39
2022-08-17T05:58:57.555Z,99425.77
2022-08-17T06:01:35.744Z,99428.87
2022-08-17T06:04:14.235Z,99427.50
2022-08-17T06:06:50.869Z,99428.75
2022-08-17T06:09:36.122Z,99422.75
2022-08-17T06:12:19.818Z,99432.96
2022-08-17T06:15:01.529Z,99427.28
2022-08-17T06:17:35.844Z,99422.44
2022-08-17T06:20:13.208Z,99432.58
2022-08-17T06:22:49.530Z,99437.54
2022-08-17T06:25:25.694Z,99433.20
2022-08-17T06:28:01.155Z,99428.97
2022-08-17T06:30:59.318Z,99425.89
2022-08-17T06:33:15.843Z,99429.84
2022-08-17T06:35:52.909Z,99438.05
2022-08-17T06:38:37.968Z,99426.70
2022-08-17T06:41:12.802Z,99430.95
2022-08-17T06:43:52.325Z,99426.28
2022-08-17T06:46:28.416Z,99415.19
2022-08-17T06:49:09.187Z,99426.53
2022-08-17T06:51:46.271Z,99424.86
2022-08-17T06:57:06.322Z,99416.03
2022-08-17T07:02:29.128Z,99412.97
2022-08-17T07:05:03.731Z,99415.72
2022-08-17T07:07:57.282Z,99419.66
2022-08-17T07:10:34.376Z,99411.68
2022-08-17T07:13:29.594Z,99416.22
2022-08-17T07:16:08.792Z,99413.12
2022-08-17T07:18:44.067Z,99411.30
2022-08-17T07:21:25.810Z,99410.62
2022-08-17T07:24:11.111Z,99404.25
2022-08-17T07:26:47.770Z,99395.88
2022-08-17T07:29:21.704Z,99413.27
2022-08-17T07:31:57.499Z,99405.32
2022-08-17T07:34:30.615Z,99370.31
2022-08-17T07:37:06.524Z,99401.38
2022-08-17T07:39:39.662Z,99414.06
2022-08-17T07:42:14.801Z,99414.06
2022-08-17T07:44:53.859Z,99412.01
2022-08-17T07:47:44.756Z,99402.17
2022-08-17T07:50:30.518Z,99407.02
2022-08-17T07:53:11.406Z,99398.78
2022-08-17T07:55:45.478Z,99397.07
2022-08-17T07:58:20.883Z,99381.77
2022-08-17T08:01:09.490Z,99385.11
2022-08-17T08:03:46.226Z,99396.48
2022-08-17T08:06:25.149Z,99386.22
2022-08-17T08:09:00.684Z,99385.78
2022-08-17T08:11:35.872Z,99391.66
2022-08-17T08:14:31.087Z,99387.03
2022-08-17T08:17:06.522Z,99394.83
2022-08-17T08:19:41.132Z,99396.45
2022-08-17T08:22:17.149Z,99390.67
2022-08-17T08:25:01.281Z,99390.07
2022-08-17T08:27:39.811Z,99386.73
2022-08-17T08:30:15.830Z,99390.55
2022-08-17T08:32:58.408Z,99389.84
2022-08-17T08:35:35.103Z,99385.84
2022-08-17T08:38:14.630Z,99400.59
2022-08-17T08:40:55.496Z,99380.70
2022-08-17T08:43:34.660Z,99389.12
2022-08-17T08:46:11.742Z,99386.16
2022-08-17T08:49:39.025Z,99386.92
2022-08-17T08:52:00.090Z,99381.11
2022-08-17T08:54:39.424Z,99390.45
2022-08-17T08:57:33.510Z,99394.08
2022-08-17T09:00:10.601Z,99380.53
2022-08-17T09:06:37.478Z,99385.83
2022-08-17T09:09:01.960Z,99382.97
2022-08-17T09:12:01.076Z,99371.45
2022-08-17T09:14:21.878Z,99372.88
2022-08-17T09:16:59.050Z,99359.80
2022-08-17T09:19:35.750Z,99375.53
2022-08-17T09:22:13.784Z,99377.06
2022-08-17T09:24:50.233Z,99376.34
2022-08-17T09:27:26.475Z,99373.41
2022-08-17T09:30:02.616Z,99372.05
2022-08-17T09:32:40.757Z,99374.66
2022-08-17T09:35:16.893Z,99375.57
2022-08-17T09:37:51.626Z,99378.47
2022-08-17T09:40:28.208Z,99369.39
2022-08-17T09:43:05.805Z,99358.55
2022-08-17T09:45:42.789Z,99363.01
2022-08-17T09:51:05.916Z,99372.61
2022-08-17T09:53:39.652Z,99368.22
2022-08-17T09:59:38.372Z,99362.88
2022-08-17T10:02:10.222Z,99364.61
2022-08-17T10:04:48.354Z,99370.80
2022-08-17T10:07:25.097Z,99366.96
2022-08-17T10:10:01.889Z,99365.12
2022-08-17T10:12:40.430Z,99363.67
2022-08-17T10:15:23.249Z,99366.11
2022-08-17T10:18:11.190Z,99361.22
2022-08-17T10:20:48.724Z,99350.62
2022-08-17T10:23:42.361Z,99359.67
2022-08-17T10:26:18.617Z,99358.88
2022-08-17T10:28:55.087Z,99360.80
2022-08-17T10:31:34.591Z,99360.11
2022-08-17T10:37:59.358Z,99352.72
2022-08-17T10:40:38.895Z,99352.44
2022-08-17T10:43:22.770Z,99348.56
2022-08-17T10:46:27.921Z,99334.23
2022-08-17T10:48:39.633Z,99350.23
2022-08-17T10:51:15.439Z,99349.20
2022-08-17T10:54:01.507Z,99342.11
2022-08-17T10:56:47.391Z,99348.05
2022-08-17T10:59:51.785Z,99342.16
2022-08-17T11:02:31.684Z,99340.41
2022-08-17T11:05:16.836Z,99344.63
2022-08-17T11:07:58.652Z,99353.20
2022-08-17T11:10:52.306Z,99318.19
2022-08-17T11:13:33.275Z,99328.95
2022-08-17T11:16:13.161Z,99327.37
2022-08-17T11:18:58.160Z,99333.66
2022-08-17T11:21:56.029Z,99327.96
2022-08-17T11:24:35.842Z,99321.30
2022-08-17T11:27:12.555Z,99327.86
2022-08-17T11:29:59.508Z,99321.92
2022-08-17T11:32:37.146Z,99325.67
2022-08-17T11:35:29.754Z,99329.98
2022-08-17T11:38:19.164Z,99327.33
2022-08-17T11:44:18.785Z,99319.33
2022-08-17T11:47:17.761Z,99317.52
2022-08-17T11:50:18.360Z,99314.81
2022-08-17T11:52:52.158Z,99318.62
2022-08-17T11:55:59.833Z,99310.50
2022-08-17T11:58:40.391Z,99310.65
2022-08-17T12:01:16.108Z,99311.81
2022-08-17T12:03:54.242Z,99308.12
2022-08-17T12:06:38.629Z,99297.67
2022-08-17T12:09:16.344Z,99291.47
2022-08-17T12:11:55.339Z,99297.14
2022-08-17T12:15:05.909Z,99301.73
2022-08-17T12:17:10.654Z,99302.35
2022-08-17T12:19:47.041Z,99306.92
2022-08-17T12:22:23.810Z,99290.81
2022-08-17T12:24:59.995Z,99308.42
2022-08-17T12:28:05.484Z,99297.94
2022-08-17T12:30:14.396Z,99301.80
2022-08-17T12:32:48.804Z,99292.52
2022-08-17T12:35:24.950Z,99291.93
2022-08-17T12:38:00.011Z,99291.09
2022-08-17T12:40:34.843Z,99295.02
2022-08-17T12:43:11.498Z,99292.80
2022-08-17T12:45:46.380Z,99294.02
2022-08-17T12:48:25.880Z,99291.74
2022-08-17T12:51:04.430Z,99288.47
2022-08-17T12:53:38.492Z,99279.70
2022-08-17T12:56:14.442Z,99273.94
2022-08-17T12:58:48.475Z,99279.52
2022-08-17T13:01:23.792Z,99275.59
2022-08-17T13:03:59.858Z,99279.80
2022-08-17T13:06:35.240Z,99269.90
2022-08-17T13:09:14.634Z,99274.05
2022-08-17T13:11:52.485Z,99273.66
2022-08-17T13:14:25.773Z,99278.77
2022-08-17T13:17:00.762Z,99280.31
2022-08-17T13:19:41.117Z,99270.19
2022-08-17T13:22:13.710Z,99276.16
2022-08-17T13:24:54.638Z,99277.86
2022-08-17T13:27:30.513Z,99282.91
2022-08-17T13:30:07.041Z,99274.69
2022-08-17T13:32:44.286Z,99280.34
2022-08-17T13:35:52.253Z,99283.95
2022-08-17T13:38:42.946Z,99280.92
2022-08-17T13:41:34.641Z,99273.48
2022-08-17T13:44:37.453Z,99264.13
2022-08-17T13:47:17.333Z,99262.23
2022-08-17T13:49:51.393Z,99266.69
2022-08-17T13:52:40.526Z,99257.03
2022-08-17T13:55:20.946Z,99256.15
2022-08-17T13:58:03.555Z,99258.54
2022-08-17T14:00:35.459Z,99260.91
2022-08-17T14:03:08.880Z,99256.89
2022-08-17T14:05:42.409Z,99265.03
2022-08-17T14:08:17.096Z,99266.61
2022-08-17T14:10:53.728Z,99264.81
2022-08-17T14:13:28.867Z,99261.61
2022-08-17T14:16:02.246Z,99262.04
2022-08-17T14:18:55.918Z,99254.52
2022-08-17T14:21:10.319Z,99254.56
2022-08-17T14:23:54.628Z,99247.92
2022-08-17T14:26:19.427Z,99250.55
2022-08-17T14:28:56.833Z,99240.47
2022-08-17T14:31:35.370Z,99248.04
2022-08-17T14:34:06.474Z,99245.59
2022-08-17T14:36:48.146Z,99250.09
2022-08-17T14:39:18.909Z,99244.39
2022-08-17T14:41:53.061Z,99249.20
2022-08-17T14:44:26.179Z,99256.45
2022-08-17T14:46:59.325Z,99253.98
2022-08-17T14:49:32.593Z,99250.45
2022-08-17T14:52:06.393Z,99255.91
2022-08-17T14:54:45.146Z,99247.16
2022-08-17T14:57:23.858Z,99253.95
2022-08-17T14:59:52.301Z,99250.77
2022-08-17T15:02:29.876Z,99248.56
2022-08-17T15:05:05.557Z,99249.06
2022-08-17T15:07:38.526Z,99251.36
2022-08-17T15:10:12.886Z,99247.11
2022-08-17T15:12:46.375Z,99239.47
2022-08-17T15:15:20.571Z,99244.64
2022-08-17T15:17:54.040Z,99245.72
2022-08-17T15:20:29.935Z,99249.26
2022-08-17T15:23:03.491Z,99248.91
2022-08-17T15:25:37.008Z,99240.73
2022-08-17T15:28:10.073Z,99242.33
2022-08-17T15:30:44.935Z,99230.23
2022-08-17T15:33:20.530Z,99247.37
2022-08-17T15:35:54.616Z,99243.13
2022-08-17T15:38:28.189Z,99236.89
2022-08-17T15:41:01.434Z,99244.45
2022-08-17T15:43:34.981Z,99238.30
2022-08-17T15:46:12.517Z,99239.94
2022-08-17T15:48:47.562Z,99238.50
2022-08-17T15:51:23.399Z,99235.61
2022-08-17T15:53:58.628Z,99238.52
2022-08-17T15:56:32.500Z,99235.53
2022-08-17T15:59:06.245Z,99236.89
2022-08-17T16:03:14.863Z,99235.34
2022-08-17T16:04:30.452Z,99236.33
2022-08-17T16:06:49.625Z,99238.67
2022-08-17T16:09:23.271Z,99234.70
2022-08-17T16:11:56.743Z,99237.72
2022-08-17T16:14:33.837Z,99243.86
2022-08-17T16:17:38.401Z,99240.16
2022-08-17T16:19:43.346Z,99242.71
2022-08-17T16:22:17.547Z,99240.09
2022-08-17T16:24:57.495Z,99243.74
2022-08-17T16:27:27.605Z,99247.05
2022-08-17T16:30:01.434Z,99243.57
2022-08-17T16:32:36.253Z,99250.27
2022-08-17T16:35:15.155Z,99247.27
2022-08-17T16:37:48.540Z,99252.83
2022-08-17T16:40:23.241Z,99251.90
2022-08-17T16:42:57.919Z,99258.12
2022-08-17T16:45:35.624Z,99258.20
2022-08-17T16:48:09.806Z,99254.16
2022-08-17T16:51:02.863Z,99253.80
2022-08-17T16:53:21.303Z,99249.61
2022-08-17T16:55:54.885Z,99253.13
2022-08-17T16:58:28.204Z,99258.20
2022-08-17T17:01:02.040Z,99258.49
2022-08-17T17:03:36.058Z,99250.84
2022-08-17T17:08:56.247Z,99258.36
2022-08-17T17:11:33.739Z,99258.94
2022-08-17T17:14:10.048Z,99258.14
2022-08-17T17:16:47.077Z,99254.11
2022-08-17T17:19:27.740Z,99267.47
2022-08-17T17:22:03.078Z,99262.31
2022-08-17T17:24:39.314Z,99270.39
2022-08-17T17:27:19.483Z,99268.23
2022-08-17T17:29:59.520Z,99276.84
2022-08-17T17:32:38.574Z,99270.50
2022-08-17T17:35:19.061Z,99266.03
2022-08-17T17:37:53.977Z,99267.52
2022-08-17T17:40:30.539Z,99262.70
2022-08-17T17:43:34.794Z,99256.64
2022-08-17T17:45:44.724Z,99250.16
2022-08-17T17:48:18.325Z,99248.83
2022-08-17T17:50:55.942Z,99253.50
2022-08-17T17:53:34.999Z,99240.69
2022-08-17T17:56:34.261Z,99244.38
2022-08-17T17:58:50.430Z,99242.86
2022-08-17T18:01:34.667Z,99244.48
2022-08-17T18:04:26.715Z,99246.91
2022-08-17T18:07:09.962Z,99238.00
2022-08-17T18:10:01.084Z,99242.62
2022-08-17T18:12:35.982Z,99242.12
2022-08-17T18:15:36.279Z,99240.70
2022-08-17T18:18:38.730Z,99233.22
2022-08-17T18:21:19.484Z,99233.08
2022-08-17T18:23:58.162Z,99230.77
2022-08-17T18:26:51.131Z,99231.91
2022-08-17T18:29:40.232Z,99236.91
2022-08-17T18:32:20.493Z,99243.88
2022-08-17T18:34:56.060Z,99240.97
2022-08-17T18:37:50.617Z,99235.81
2022-08-17T18:40:41.878Z,99230.81
2022-08-17T18:43:23.525Z,99232.98
2022-08-17T18:45:59.155Z,99237.48
2022-08-17T18:48:36.888Z,99233.96
2022-08-17T18:51:39.754Z,99235.00
2022-08-17T18:54:18.701Z,99226.38
2022-08-17T18:56:56.848Z,99225.68
2022-08-17T18:59:41.258Z,99238.47
2022-08-17T19:02:44.789Z,99229.75
2022-08-17T19:05:13.693Z,99230.88
2022-08-17T19:07:48.338Z,99219.07
2022-08-17T19:10:25.626Z,99231.34
2022-08-17T19:13:03.746Z,99229.61
2022-08-17T19:15:41.902Z,99226.66
2022-08-17T19:18:18.455Z,99227.78
2022-08-17T19:20:54.971Z,99224.78
2022-08-17T19:23:31.304Z,99228.88
2022-08-17T19:26:07.062Z,99224.98
2022-08-17T19:28:48.580Z,99224.98
2022-08-17T19:31:24.846Z,99226.81
2022-08-17T19:34:01.804Z,99217.81
2022-08-17T19:36:39.713Z,99220.49
2022-08-17T19:39:17.988Z,99220.86
2022-08-17T19:41:54.679Z,99225.83
2022-08-17T19:44:40.214Z,99227.80
2022-08-17T19:47:36.467Z,99232.53
2022-08-17T19:49:58.921Z,99218.31
2022-08-17T19:52:41.512Z,99228.39
2022-08-17T19:55:21.721Z,99223.37
2022-08-17T19:58:00.927Z,99218.20
2022-08-17T20:00:38.277Z,99227.48
2022-08-17T20:03:16.829Z,99223.87
2022-08-17T20:08:30.868Z,99220.40
2022-08-17T20:11:07.712Z,99219.55
2022-08-17T20:13:45.117Z,99222.22
2022-08-17T20:16:20.650Z,99220.58
2022-08-17T20:18:57.214Z,99233.31
2022-08-17T20:21:34.449Z,99227.20
2022-08-17T20:24:16.923Z,99229.91
2022-08-17T20:26:58.464Z,99230.25
2022-08-17T20:29:40.549Z,99232.98
2022-08-17T20:35:27.278Z,99239.66
2022-08-17T20:38:04.974Z,99236.67
2022-08-17T20:40:39.300Z,99237.55
2022-08-17T20:46:50.612Z,99245.42
2022-08-17T20:49:30.647Z,99253.09
2022-08-17T20:52:10.771Z,99253.27
2022-08-17T20:54:51.537Z,99249.09
2022-08-17T20:57:50.017Z,99256.26
2022-08-17T21:00:46.136Z,99249.09
2022-08-17T21:03:52.244Z,99250.12
2022-08-17T21:06:31.872Z,99257.50
2022-08-17T21:09:27.769Z,99261.36
2022-08-17T21:12:05.436Z,99261.75
2022-08-17T21:14:58.297Z,99261.59
2022-08-17T21:17:51.610Z,99261.45
2022-08-17T21:20:32.858Z,99259.88
2022-08-17T21:23:34.584Z,99264.51
2022-08-17T21:26:30.123Z,99261.92
2022-08-17T21:29:30.451Z,99258.62
2022-08-17T21:31:54.084Z,99266.55
2022-08-17T21:34:35.348Z,99262.36
2022-08-17T21:37:31.524Z,99260.80
2022-08-17T21:40:20.140Z,99265.36
2022-08-17T21:42:56.361Z,99266.68
2022-08-17T21:45:34.502Z,99268.55
2022-08-17T21:48:15.742Z,99274.13
2022-08-17T21:50:59.531Z,99272.56
2022-08-17T21:53:38.008Z,99261.13
2022-08-17T21:56:14.060Z,99263.23
2022-08-17T21:58:49.014Z,99270.73
2022-08-17T22:01:25.165Z,99267.66
2022-08-17T22:04:06.729Z,99272.27
2022-08-17T22:06:43.349Z,99262.69
2022-08-17T22:09:21.056Z,99266.58
2022-08-17T22:12:01.747Z,99271.91
2022-08-17T22:14:53.296Z,99272.84
2022-08-17T22:17:15.656Z,99268.47
2022-08-17T22:19:52.030Z,99277.13
2022-08-17T22:22:40.378Z,99276.03
2022-08-17T22:25:17.375Z,99273.48
2022-08-17T22:27:55.571Z,99276.75
2022-08-17T22:30:34.266Z,99283.25
2022-08-17T22:33:34.382Z,99279.13
2022-08-17T22:36:25.052Z,99273.87
2022-08-17T22:39:00.015Z,99283.22
2022-08-17T22:41:41.540Z,99275.70
2022-08-17T22:44:23.370Z,99282.95
2022-08-17T22:47:00.466Z,99282.15
2022-08-17T22:49:38.533Z,99279.75
2022-08-17T22:52:34.621Z,99281.64
2022-08-17T22:55:32.613Z,99288.97
2022-08-17T22:58:29.560Z,99290.16
2022-08-17T23:01:25.640Z,99288.57
2022-08-17T23:04:02.222Z,99288.23
2022-08-17T23:06:37.549Z,99294.86
2022-08-17T23:09:11.220Z,99293.11
2022-08-17T23:11:49.048Z,99295.63
2022-08-17T23:14:23.633Z,99291.23
2022-08-17T23:16:59.646Z,99288.72
2022-08-17T23:19:33.485Z,99285.91
2022-08-17T23:22:08.826Z,99289.53
2022-08-17T23:24:48.619Z,99290.38
2022-08-17T23:27:22.234Z,99293.86
2022-08-17T23:29:55.991Z,99288.53
2022-08-17T23:32:29.441Z,99292.30
2022-08-17T23:35:02.930Z,99294.11
2022-08-17T23:37:36.723Z,99290.45
2022-08-17T23:40:12.412Z,99290.52
2022-08-17T23:42:46.202Z,99296.11
2022-08-17T23:45:25.064Z,99290.03
2022-08-17T23:48:00.526Z,99297.35
2022-08-17T23:50:34.727Z,99304.88
2022-08-17T23:53:08.472Z,99300.33
2022-08-17T23:55:42.242Z,99293.64
2022-08-17T23:58:15.806Z,99302.92
